sensor_id;sensor_type;location;lat;lon;timestamp;P1;durP1;ratioP1;P2;durP2;ratioP2
73126;SDS011;61316;47.852;11.410;2022-07-29T00:02:07;40.77;;;34.83;;
73126;SDS011;61316;47.852;11.410;2022-07-29T00:04:34;40.73;;;34.30;;
73126;SDS011;61316;47.852;11.410;2022-07-29T00:06:59;41.38;;;36.42;;
73126;SDS011;61316;47.852;11.410;2022-07-29T00:09:24;42.80;;;36.30;;
73126;SDS011;61316;47.852;11.410;2022-07-29T00:11:49;44.13;;;37.80;;
73126;SDS011;61316;47.852;11.410;2022-07-29T00:14:14;46.00;;;38.60;;
73126;SDS011;61316;47.852;11.410;2022-07-29T00:16:40;45.60;;;38.13;;
73126;SDS011;61316;47.852;11.410;2022-07-29T00:19:05;45.60;;;38.53;;
73126;SDS011;61316;47.852;11.410;2022-07-29T00:21:30;43.93;;;37.87;;
73126;SDS011;61316;47.852;11.410;2022-07-29T00:23:55;44.87;;;39.00;;
73126;SDS011;61316;47.852;11.410;2022-07-29T00:26:21;44.27;;;39.17;;
73126;SDS011;61316;47.852;11.410;2022-07-29T00:28:46;45.90;;;39.27;;
73126;SDS011;61316;47.852;11.410;2022-07-29T00:31:11;47.03;;;41.67;;
73126;SDS011;61316;47.852;11.410;2022-07-29T00:33:37;59.13;;;48.90;;
73126;SDS011;61316;47.852;11.410;2022-07-29T00:36:02;68.47;;;56.90;;
73126;SDS011;61316;47.852;11.410;2022-07-29T00:38:27;76.50;;;65.40;;
73126;SDS011;61316;47.852;11.410;2022-07-29T00:40:52;88.43;;;73.70;;
73126;SDS011;61316;47.852;11.410;2022-07-29T00:43:17;91.60;;;78.47;;
73126;SDS011;61316;47.852;11.410;2022-07-29T00:45:43;100.47;;;84.65;;
73126;SDS011;61316;47.852;11.410;2022-07-29T00:48:08;99.05;;;85.78;;
73126;SDS011;61316;47.852;11.410;2022-07-29T00:50:33;100.17;;;86.27;;
73126;SDS011;61316;47.852;11.410;2022-07-29T00:52:59;100.03;;;85.95;;
73126;SDS011;61316;47.852;11.410;2022-07-29T00:55:24;104.43;;;88.60;;
73126;SDS011;61316;47.852;11.410;2022-07-29T00:57:50;105.07;;;88.83;;
73126;SDS011;61316;47.852;11.410;2022-07-29T01:00:20;107.83;;;92.00;;
73126;SDS011;61316;47.852;11.410;2022-07-29T01:02:46;102.32;;;89.13;;
73126;SDS011;61316;47.852;11.410;2022-07-29T01:05:15;101.18;;;89.65;;
73126;SDS011;61316;47.852;11.410;2022-07-29T01:07:41;103.43;;;88.97;;
73126;SDS011;61316;47.852;11.410;2022-07-29T01:10:07;104.40;;;89.35;;
73126;SDS011;61316;47.852;11.410;2022-07-29T01:12:34;105.95;;;88.97;;
73126;SDS011;61316;47.852;11.410;2022-07-29T01:15:00;102.53;;;87.25;;
73126;SDS011;61316;47.852;11.410;2022-07-29T01:17:36;100.50;;;86.82;;
73126;SDS011;61316;47.852;11.410;2022-07-29T01:22:42;96.10;;;84.13;;
73126;SDS011;61316;47.852;11.410;2022-07-29T01:30:26;90.55;;;79.40;;
73126;SDS011;61316;47.852;11.410;2022-07-29T01:32:56;92.57;;;79.80;;
73126;SDS011;61316;47.852;11.410;2022-07-29T01:35:25;90.15;;;77.85;;
73126;SDS011;61316;47.852;11.410;2022-07-29T01:37:58;88.95;;;77.00;;
73126;SDS011;61316;47.852;11.410;2022-07-29T01:42:54;88.72;;;75.90;;
73126;SDS011;61316;47.852;11.410;2022-07-29T01:45:33;84.05;;;73.63;;
73126;SDS011;61316;47.852;11.410;2022-07-29T01:48:03;85.70;;;74.07;;
73126;SDS011;61316;47.852;11.410;2022-07-29T01:50:38;83.80;;;73.43;;
73126;SDS011;61316;47.852;11.410;2022-07-29T01:53:06;90.47;;;76.25;;
73126;SDS011;61316;47.852;11.410;2022-07-29T01:55:34;92.38;;;78.30;;
73126;SDS011;61316;47.852;11.410;2022-07-29T01:57:59;90.90;;;79.00;;
73126;SDS011;61316;47.852;11.410;2022-07-29T02:00:25;92.20;;;79.43;;
73126;SDS011;61316;47.852;11.410;2022-07-29T02:02:51;90.07;;;78.37;;
73126;SDS011;61316;47.852;11.410;2022-07-29T02:05:18;90.82;;;78.50;;
73126;SDS011;61316;47.852;11.410;2022-07-29T02:07:44;90.70;;;78.30;;
73126;SDS011;61316;47.852;11.410;2022-07-29T02:10:11;88.30;;;76.47;;
73126;SDS011;61316;47.852;11.410;2022-07-29T02:12:37;86.93;;;74.30;;
73126;SDS011;61316;47.852;11.410;2022-07-29T02:15:04;86.55;;;75.28;;
73126;SDS011;61316;47.852;11.410;2022-07-29T02:17:35;84.78;;;72.90;;
73126;SDS011;61316;47.852;11.410;2022-07-29T02:20:03;83.32;;;73.85;;
73126;SDS011;61316;47.852;11.410;2022-07-29T02:22:29;84.75;;;72.10;;
73126;SDS011;61316;47.852;11.410;2022-07-29T02:24:55;80.97;;;70.45;;
73126;SDS011;61316;47.852;11.410;2022-07-29T02:27:20;82.20;;;70.47;;
73126;SDS011;61316;47.852;11.410;2022-07-29T02:29:47;81.43;;;70.13;;
73126;SDS011;61316;47.852;11.410;2022-07-29T02:32:13;80.32;;;68.97;;
73126;SDS011;61316;47.852;11.410;2022-07-29T02:34:40;76.17;;;66.17;;
73126;SDS011;61316;47.852;11.410;2022-07-29T02:37:05;76.13;;;64.15;;
73126;SDS011;61316;47.852;11.410;2022-07-29T02:39:32;75.60;;;63.35;;
73126;SDS011;61316;47.852;11.410;2022-07-29T02:42:02;74.30;;;63.57;;
73126;SDS011;61316;47.852;11.410;2022-07-29T02:44:28;74.00;;;63.65;;
73126;SDS011;61316;47.852;11.410;2022-07-29T02:46:58;74.53;;;64.30;;
73126;SDS011;61316;47.852;11.410;2022-07-29T02:52:16;71.55;;;62.05;;
73126;SDS011;61316;47.852;11.410;2022-07-29T02:54:47;71.47;;;61.27;;
73126;SDS011;61316;47.852;11.410;2022-07-29T02:59:52;73.07;;;62.70;;
73126;SDS011;61316;47.852;11.410;2022-07-29T03:02:18;72.57;;;62.55;;
73126;SDS011;61316;47.852;11.410;2022-07-29T03:04:45;73.17;;;62.60;;
73126;SDS011;61316;47.852;11.410;2022-07-29T03:07:13;71.47;;;61.55;;
73126;SDS011;61316;47.852;11.410;2022-07-29T03:09:40;69.00;;;60.63;;
73126;SDS011;61316;47.852;11.410;2022-07-29T03:12:06;68.55;;;59.95;;
73126;SDS011;61316;47.852;11.410;2022-07-29T03:14:32;71.00;;;61.40;;
73126;SDS011;61316;47.852;11.410;2022-07-29T03:16:57;71.75;;;61.40;;
73126;SDS011;61316;47.852;11.410;2022-07-29T03:19:23;69.93;;;60.35;;
73126;SDS011;61316;47.852;11.410;2022-07-29T03:21:48;69.33;;;59.87;;
73126;SDS011;61316;47.852;11.410;2022-07-29T03:24:33;70.00;;;60.20;;
73126;SDS011;61316;47.852;11.410;2022-07-29T03:26:59;68.93;;;58.75;;
73126;SDS011;61316;47.852;11.410;2022-07-29T03:29:25;69.87;;;59.33;;
73126;SDS011;61316;47.852;11.410;2022-07-29T03:31:50;69.28;;;59.47;;
73126;SDS011;61316;47.852;11.410;2022-07-29T03:34:15;67.43;;;58.72;;
73126;SDS011;61316;47.852;11.410;2022-07-29T03:36:41;66.20;;;58.57;;
73126;SDS011;61316;47.852;11.410;2022-07-29T03:39:06;67.03;;;58.10;;
73126;SDS011;61316;47.852;11.410;2022-07-29T03:41:31;69.40;;;58.50;;
73126;SDS011;61316;47.852;11.410;2022-07-29T03:43:58;66.83;;;57.57;;
73126;SDS011;61316;47.852;11.410;2022-07-29T03:46:23;66.68;;;57.47;;
73126;SDS011;61316;47.852;11.410;2022-07-29T03:48:53;65.55;;;56.88;;
73126;SDS011;61316;47.852;11.410;2022-07-29T03:51:21;65.50;;;55.42;;
73126;SDS011;61316;47.852;11.410;2022-07-29T03:53:46;62.63;;;55.67;;
73126;SDS011;61316;47.852;11.410;2022-07-29T03:56:11;63.00;;;55.77;;
73126;SDS011;61316;47.852;11.410;2022-07-29T03:58:39;64.88;;;55.38;;
73126;SDS011;61316;47.852;11.410;2022-07-29T04:01:04;65.55;;;55.75;;
73126;SDS011;61316;47.852;11.410;2022-07-29T04:03:30;63.00;;;54.63;;
73126;SDS011;61316;47.852;11.410;2022-07-29T04:05:59;61.40;;;54.25;;
73126;SDS011;61316;47.852;11.410;2022-07-29T04:08:24;61.05;;;53.10;;
73126;SDS011;61316;47.852;11.410;2022-07-29T04:10:50;62.60;;;54.87;;
73126;SDS011;61316;47.852;11.410;2022-07-29T04:13:16;59.08;;;49.75;;
73126;SDS011;61316;47.852;11.410;2022-07-29T04:15:42;59.50;;;50.60;;
73126;SDS011;61316;47.852;11.410;2022-07-29T04:18:07;59.67;;;51.13;;
73126;SDS011;61316;47.852;11.410;2022-07-29T04:20:32;60.63;;;51.37;;
73126;SDS011;61316;47.852;11.410;2022-07-29T04:22:57;56.17;;;49.30;;
73126;SDS011;61316;47.852;11.410;2022-07-29T04:25:22;57.70;;;50.07;;
73126;SDS011;61316;47.852;11.410;2022-07-29T04:27:48;55.40;;;48.97;;
73126;SDS011;61316;47.852;11.410;2022-07-29T04:30:25;54.67;;;48.00;;
73126;SDS011;61316;47.852;11.410;2022-07-29T04:32:50;54.43;;;46.90;;
73126;SDS011;61316;47.852;11.410;2022-07-29T04:35:15;53.00;;;46.73;;
73126;SDS011;61316;47.852;11.410;2022-07-29T04:37:41;52.63;;;45.60;;
73126;SDS011;61316;47.852;11.410;2022-07-29T04:40:06;52.63;;;46.20;;
73126;SDS011;61316;47.852;11.410;2022-07-29T04:42:31;51.83;;;44.27;;
73126;SDS011;61316;47.852;11.410;2022-07-29T04:44:56;52.13;;;43.30;;
73126;SDS011;61316;47.852;11.410;2022-07-29T04:47:21;48.33;;;41.00;;
73126;SDS011;61316;47.852;11.410;2022-07-29T04:49:47;47.00;;;40.40;;
73126;SDS011;61316;47.852;11.410;2022-07-29T04:52:12;45.33;;;39.37;;
73126;SDS011;61316;47.852;11.410;2022-07-29T04:54:37;43.97;;;38.53;;
73126;SDS011;61316;47.852;11.410;2022-07-29T04:57:02;44.97;;;38.60;;
73126;SDS011;61316;47.852;11.410;2022-07-29T04:59:27;43.57;;;37.60;;
73126;SDS011;61316;47.852;11.410;2022-07-29T05:01:52;44.53;;;36.33;;
73126;SDS011;61316;47.852;11.410;2022-07-29T05:04:18;42.47;;;36.10;;
73126;SDS011;61316;47.852;11.410;2022-07-29T05:06:43;44.83;;;36.00;;
73126;SDS011;61316;47.852;11.410;2022-07-29T05:09:08;40.07;;;34.73;;
73126;SDS011;61316;47.852;11.410;2022-07-29T05:11:33;37.90;;;31.40;;
73126;SDS011;61316;47.852;11.410;2022-07-29T05:13:58;36.53;;;28.90;;
73126;SDS011;61316;47.852;11.410;2022-07-29T05:16:24;35.23;;;26.93;;
73126;SDS011;61316;47.852;11.410;2022-07-29T05:18:49;32.50;;;25.33;;
73126;SDS011;61316;47.852;11.410;2022-07-29T05:21:14;28.83;;;22.60;;
73126;SDS011;61316;47.852;11.410;2022-07-29T05:23:39;27.37;;;22.63;;
73126;SDS011;61316;47.852;11.410;2022-07-29T05:26:04;24.80;;;20.00;;
73126;SDS011;61316;47.852;11.410;2022-07-29T05:28:32;21.73;;;17.00;;
73126;SDS011;61316;47.852;11.410;2022-07-29T05:30:58;17.70;;;15.02;;
73126;SDS011;61316;47.852;11.410;2022-07-29T05:33:23;17.95;;;13.32;;
73126;SDS011;61316;47.852;11.410;2022-07-29T05:35:48;18.40;;;13.30;;
73126;SDS011;61316;47.852;11.410;2022-07-29T05:38:13;16.70;;;11.83;;
73126;SDS011;61316;47.852;11.410;2022-07-29T05:40:38;15.20;;;11.60;;
73126;SDS011;61316;47.852;11.410;2022-07-29T05:43:03;14.43;;;11.63;;
73126;SDS011;61316;47.852;11.410;2022-07-29T05:45:29;14.70;;;11.00;;
73126;SDS011;61316;47.852;11.410;2022-07-29T05:47:54;13.07;;;10.30;;
73126;SDS011;61316;47.852;11.410;2022-07-29T05:50:19;12.17;;;9.90;;
73126;SDS011;61316;47.852;11.410;2022-07-29T05:52:44;13.37;;;9.57;;
73126;SDS011;61316;47.852;11.410;2022-07-29T05:55:09;11.93;;;9.13;;
73126;SDS011;61316;47.852;11.410;2022-07-29T05:57:34;10.97;;;9.03;;
73126;SDS011;61316;47.852;11.410;2022-07-29T06:00:00;11.50;;;8.50;;
73126;SDS011;61316;47.852;11.410;2022-07-29T06:02:25;12.13;;;8.80;;
73126;SDS011;61316;47.852;11.410;2022-07-29T06:04:50;10.53;;;8.97;;
73126;SDS011;61316;47.852;11.410;2022-07-29T06:07:17;11.73;;;8.57;;
73126;SDS011;61316;47.852;11.410;2022-07-29T06:09:43;9.03;;;8.03;;
73126;SDS011;61316;47.852;11.410;2022-07-29T06:12:08;10.13;;;8.07;;
73126;SDS011;61316;47.852;11.410;2022-07-29T06:14:34;10.53;;;8.30;;
73126;SDS011;61316;47.852;11.410;2022-07-29T06:17:00;10.32;;;7.60;;
73126;SDS011;61316;47.852;11.410;2022-07-29T06:19:25;9.40;;;7.40;;
73126;SDS011;61316;47.852;11.410;2022-07-29T06:21:50;8.57;;;7.37;;
73126;SDS011;61316;47.852;11.410;2022-07-29T06:24:15;8.80;;;7.47;;
73126;SDS011;61316;47.852;11.410;2022-07-29T06:26:41;8.10;;;6.90;;
73126;SDS011;61316;47.852;11.410;2022-07-29T06:29:06;7.88;;;6.60;;
73126;SDS011;61316;47.852;11.410;2022-07-29T06:31:32;8.25;;;6.50;;
73126;SDS011;61316;47.852;11.410;2022-07-29T06:33:57;7.83;;;6.63;;
73126;SDS011;61316;47.852;11.410;2022-07-29T06:36:22;7.82;;;6.70;;
73126;SDS011;61316;47.852;11.410;2022-07-29T06:38:47;8.47;;;6.43;;
73126;SDS011;61316;47.852;11.410;2022-07-29T06:41:12;8.87;;;6.70;;
73126;SDS011;61316;47.852;11.410;2022-07-29T06:43:41;16.50;;;6.95;;
73126;SDS011;61316;47.852;11.410;2022-07-29T06:46:07;9.03;;;4.93;;
73126;SDS011;61316;47.852;11.410;2022-07-29T06:48:33;6.57;;;4.00;;
73126;SDS011;61316;47.852;11.410;2022-07-29T06:50:58;3.65;;;2.72;;
73126;SDS011;61316;47.852;11.410;2022-07-29T06:53:25;5.75;;;2.83;;
73126;SDS011;61316;47.852;11.410;2022-07-29T06:55:50;3.63;;;2.50;;
73126;SDS011;61316;47.852;11.410;2022-07-29T06:58:15;4.27;;;3.00;;
73126;SDS011;61316;47.852;11.410;2022-07-29T07:00:42;5.70;;;3.00;;
73126;SDS011;61316;47.852;11.410;2022-07-29T07:03:08;3.17;;;2.10;;
73126;SDS011;61316;47.852;11.410;2022-07-29T07:05:33;2.27;;;1.80;;
73126;SDS011;61316;47.852;11.410;2022-07-29T07:07:58;3.40;;;1.70;;
73126;SDS011;61316;47.852;11.410;2022-07-29T07:10:23;3.40;;;1.70;;
73126;SDS011;61316;47.852;11.410;2022-07-29T07:12:48;1.60;;;1.50;;
73126;SDS011;61316;47.852;11.410;2022-07-29T07:15:13;5.67;;;3.50;;
73126;SDS011;61316;47.852;11.410;2022-07-29T07:17:39;5.67;;;3.20;;
73126;SDS011;61316;47.852;11.410;2022-07-29T07:20:05;4.90;;;2.80;;
73126;SDS011;61316;47.852;11.410;2022-07-29T07:22:30;2.70;;;2.00;;
73126;SDS011;61316;47.852;11.410;2022-07-29T07:24:55;2.57;;;2.03;;
73126;SDS011;61316;47.852;11.410;2022-07-29T07:27:20;3.33;;;2.80;;
73126;SDS011;61316;47.852;11.410;2022-07-29T07:29:45;2.80;;;2.20;;
73126;SDS011;61316;47.852;11.410;2022-07-29T07:32:11;2.50;;;1.90;;
73126;SDS011;61316;47.852;11.410;2022-07-29T07:34:37;2.63;;;1.90;;
73126;SDS011;61316;47.852;11.410;2022-07-29T07:37:03;4.07;;;1.90;;
73126;SDS011;61316;47.852;11.410;2022-07-29T07:39:28;2.40;;;2.20;;
73126;SDS011;61316;47.852;11.410;2022-07-29T07:41:53;3.50;;;2.33;;
73126;SDS011;61316;47.852;11.410;2022-07-29T07:44:18;3.10;;;1.80;;
73126;SDS011;61316;47.852;11.410;2022-07-29T07:46:44;1.80;;;1.60;;
73126;SDS011;61316;47.852;11.410;2022-07-29T07:49:09;2.10;;;1.90;;
73126;SDS011;61316;47.852;11.410;2022-07-29T07:51:35;2.57;;;2.00;;
73126;SDS011;61316;47.852;11.410;2022-07-29T07:54:00;3.37;;;1.70;;
73126;SDS011;61316;47.852;11.410;2022-07-29T07:56:25;2.70;;;1.50;;
73126;SDS011;61316;47.852;11.410;2022-07-29T07:58:51;1.70;;;1.60;;
73126;SDS011;61316;47.852;11.410;2022-07-29T08:01:16;2.17;;;1.70;;
73126;SDS011;61316;47.852;11.410;2022-07-29T08:03:43;2.20;;;1.42;;
73126;SDS011;61316;47.852;11.410;2022-07-29T08:06:09;3.37;;;1.40;;
73126;SDS011;61316;47.852;11.410;2022-07-29T08:08:34;7.53;;;1.90;;
73126;SDS011;61316;47.852;11.410;2022-07-29T08:10:59;3.70;;;2.17;;
73126;SDS011;61316;47.852;11.410;2022-07-29T08:13:27;3.13;;;1.80;;
73126;SDS011;61316;47.852;11.410;2022-07-29T08:15:53;2.42;;;1.80;;
73126;SDS011;61316;47.852;11.410;2022-07-29T08:18:36;3.22;;;1.95;;
73126;SDS011;61316;47.852;11.410;2022-07-29T08:21:01;5.60;;;2.10;;
73126;SDS011;61316;47.852;11.410;2022-07-29T08:23:26;4.20;;;2.03;;
73126;SDS011;61316;47.852;11.410;2022-07-29T08:26:03;5.55;;;1.80;;
73126;SDS011;61316;47.852;11.410;2022-07-29T08:28:28;2.10;;;1.73;;
73126;SDS011;61316;47.852;11.410;2022-07-29T08:30:53;3.93;;;1.83;;
73126;SDS011;61316;47.852;11.410;2022-07-29T08:33:18;4.50;;;1.70;;
73126;SDS011;61316;47.852;11.410;2022-07-29T08:35:44;2.60;;;1.50;;
73126;SDS011;61316;47.852;11.410;2022-07-29T08:38:09;1.73;;;1.30;;
73126;SDS011;61316;47.852;11.410;2022-07-29T08:40:34;2.70;;;1.63;;
73126;SDS011;61316;47.852;11.410;2022-07-29T08:43:09;2.17;;;1.60;;
73126;SDS011;61316;47.852;11.410;2022-07-29T08:45:42;1.63;;;1.30;;
73126;SDS011;61316;47.852;11.410;2022-07-29T08:48:08;2.88;;;1.25;;
73126;SDS011;61316;47.852;11.410;2022-07-29T08:50:34;1.83;;;1.40;;
73126;SDS011;61316;47.852;11.410;2022-07-29T08:53:00;1.75;;;1.30;;
73126;SDS011;61316;47.852;11.410;2022-07-29T08:55:25;1.50;;;1.33;;
73126;SDS011;61316;47.852;11.410;2022-07-29T08:57:50;1.97;;;1.40;;
73126;SDS011;61316;47.852;11.410;2022-07-29T09:00:16;1.50;;;1.40;;
73126;SDS011;61316;47.852;11.410;2022-07-29T09:02:44;1.33;;;1.20;;
73126;SDS011;61316;47.852;11.410;2022-07-29T09:05:10;1.90;;;1.40;;
73126;SDS011;61316;47.852;11.410;2022-07-29T09:07:35;1.37;;;1.23;;
73126;SDS011;61316;47.852;11.410;2022-07-29T09:10:01;2.00;;;1.37;;
73126;SDS011;61316;47.852;11.410;2022-07-29T09:12:26;2.20;;;1.33;;
73126;SDS011;61316;47.852;11.410;2022-07-29T09:14:51;1.87;;;1.30;;
73126;SDS011;61316;47.852;11.410;2022-07-29T09:17:17;1.70;;;1.30;;
73126;SDS011;61316;47.852;11.410;2022-07-29T09:19:43;1.40;;;1.30;;
73126;SDS011;61316;47.852;11.410;2022-07-29T09:22:08;1.63;;;1.30;;
73126;SDS011;61316;47.852;11.410;2022-07-29T09:24:42;1.90;;;1.40;;
73126;SDS011;61316;47.852;11.410;2022-07-29T09:27:08;2.58;;;1.45;;
73126;SDS011;61316;47.852;11.410;2022-07-29T09:29:33;1.30;;;1.20;;
73126;SDS011;61316;47.852;11.410;2022-07-29T09:31:59;2.23;;;1.50;;
73126;SDS011;61316;47.852;11.410;2022-07-29T09:34:25;1.43;;;1.33;;
73126;SDS011;61316;47.852;11.410;2022-07-29T09:36:52;2.25;;;1.50;;
73126;SDS011;61316;47.852;11.410;2022-07-29T09:41:59;1.93;;;1.50;;
73126;SDS011;61316;47.852;11.410;2022-07-29T09:44:25;1.60;;;1.50;;
73126;SDS011;61316;47.852;11.410;2022-07-29T09:49:22;1.75;;;1.40;;
73126;SDS011;61316;47.852;11.410;2022-07-29T09:51:47;1.60;;;1.30;;
73126;SDS011;61316;47.852;11.410;2022-07-29T09:54:24;1.98;;;1.50;;
73126;SDS011;61316;47.852;11.410;2022-07-29T09:56:51;1.73;;;1.52;;
73126;SDS011;61316;47.852;11.410;2022-07-29T09:59:16;2.70;;;1.50;;
73126;SDS011;61316;47.852;11.410;2022-07-29T10:01:42;3.20;;;1.75;;
73126;SDS011;61316;47.852;11.410;2022-07-29T10:04:07;2.70;;;1.40;;
73126;SDS011;61316;47.852;11.410;2022-07-29T10:06:32;2.13;;;1.57;;
73126;SDS011;61316;47.852;11.410;2022-07-29T10:09:10;1.80;;;1.60;;
73126;SDS011;61316;47.852;11.410;2022-07-29T10:11:35;2.00;;;1.65;;
73126;SDS011;61316;47.852;11.410;2022-07-29T10:14:02;2.20;;;1.60;;
73126;SDS011;61316;47.852;11.410;2022-07-29T10:16:27;2.08;;;1.50;;
73126;SDS011;61316;47.852;11.410;2022-07-29T10:18:57;3.00;;;1.53;;
73126;SDS011;61316;47.852;11.410;2022-07-29T10:21:22;1.52;;;1.40;;
73126;SDS011;61316;47.852;11.410;2022-07-29T10:23:48;2.30;;;1.50;;
73126;SDS011;61316;47.852;11.410;2022-07-29T10:26:14;1.83;;;1.40;;
73126;SDS011;61316;47.852;11.410;2022-07-29T10:28:40;3.42;;;1.52;;
73126;SDS011;61316;47.852;11.410;2022-07-29T10:31:06;4.57;;;1.73;;
73126;SDS011;61316;47.852;11.410;2022-07-29T10:33:38;7.80;;;2.15;;
73126;SDS011;61316;47.852;11.410;2022-07-29T10:46:22;4.40;;;2.10;;
73126;SDS011;61316;47.852;11.410;2022-07-29T10:51:51;3.38;;;1.90;;
73126;SDS011;61316;47.852;11.410;2022-07-29T10:54:17;2.22;;;1.90;;
73126;SDS011;61316;47.852;11.410;2022-07-29T10:56:42;2.25;;;2.00;;
73126;SDS011;61316;47.852;11.410;2022-07-29T11:01:45;2.42;;;1.70;;
73126;SDS011;61316;47.852;11.410;2022-07-29T11:04:10;3.03;;;1.70;;
73126;SDS011;61316;47.852;11.410;2022-07-29T11:09:19;4.40;;;1.80;;
73126;SDS011;61316;47.852;11.410;2022-07-29T11:11:45;2.77;;;1.90;;
73126;SDS011;61316;47.852;11.410;2022-07-29T11:14:10;2.70;;;1.80;;
73126;SDS011;61316;47.852;11.410;2022-07-29T11:16:57;3.27;;;1.90;;
73126;SDS011;61316;47.852;11.410;2022-07-29T11:19:23;2.63;;;1.77;;
73126;SDS011;61316;47.852;11.410;2022-07-29T11:21:49;2.53;;;2.03;;
73126;SDS011;61316;47.852;11.410;2022-07-29T11:24:22;2.70;;;1.90;;
73126;SDS011;61316;47.852;11.410;2022-07-29T11:27:09;3.08;;;1.83;;
73126;SDS011;61316;47.852;11.410;2022-07-29T11:29:35;2.92;;;1.80;;
73126;SDS011;61316;47.852;11.410;2022-07-29T11:32:08;1.80;;;1.70;;
73126;SDS011;61316;47.852;11.410;2022-07-29T11:34:33;3.28;;;1.65;;
73126;SDS011;61316;47.852;11.410;2022-07-29T11:39:31;1.83;;;1.60;;
73126;SDS011;61316;47.852;11.410;2022-07-29T11:42:42;3.10;;;1.60;;
73126;SDS011;61316;47.852;11.410;2022-07-29T11:44:55;1.80;;;1.70;;
73126;SDS011;61316;47.852;11.410;2022-07-29T11:47:27;3.78;;;1.70;;
73126;SDS011;61316;47.852;11.410;2022-07-29T11:49:53;2.20;;;1.88;;
73126;SDS011;61316;47.852;11.410;2022-07-29T11:52:19;1.75;;;1.65;;
73126;SDS011;61316;47.852;11.410;2022-07-29T11:54:44;2.65;;;1.80;;
73126;SDS011;61316;47.852;11.410;2022-07-29T11:57:12;2.00;;;1.70;;
73126;SDS011;61316;47.852;11.410;2022-07-29T11:59:41;2.97;;;1.70;;
73126;SDS011;61316;47.852;11.410;2022-07-29T12:02:09;1.80;;;1.70;;
73126;SDS011;61316;47.852;11.410;2022-07-29T12:07:25;2.00;;;1.70;;
73126;SDS011;61316;47.852;11.410;2022-07-29T12:09:51;2.60;;;1.80;;
73126;SDS011;61316;47.852;11.410;2022-07-29T12:12:16;2.45;;;1.83;;
73126;SDS011;61316;47.852;11.410;2022-07-29T12:14:42;2.22;;;1.60;;
73126;SDS011;61316;47.852;11.410;2022-07-29T12:17:13;3.08;;;1.80;;
73126;SDS011;61316;47.852;11.410;2022-07-29T12:19:49;2.65;;;1.90;;
73126;SDS011;61316;47.852;11.410;2022-07-29T12:22:14;1.73;;;1.60;;
73126;SDS011;61316;47.852;11.410;2022-07-29T12:24:48;2.40;;;1.70;;
73126;SDS011;61316;47.852;11.410;2022-07-29T12:27:16;3.10;;;1.70;;
73126;SDS011;61316;47.852;11.410;2022-07-29T12:29:41;2.35;;;1.80;;
73126;SDS011;61316;47.852;11.410;2022-07-29T12:32:07;2.80;;;2.00;;
73126;SDS011;61316;47.852;11.410;2022-07-29T12:34:33;1.70;;;1.60;;
73126;SDS011;61316;47.852;11.410;2022-07-29T12:36:58;2.60;;;1.80;;
73126;SDS011;61316;47.852;11.410;2022-07-29T12:39:23;2.37;;;1.60;;
73126;SDS011;61316;47.852;11.410;2022-07-29T12:41:51;2.50;;;1.70;;
73126;SDS011;61316;47.852;11.410;2022-07-29T12:44:16;2.00;;;1.50;;
73126;SDS011;61316;47.852;11.410;2022-07-29T12:46:41;3.90;;;1.70;;
73126;SDS011;61316;47.852;11.410;2022-07-29T12:49:06;2.93;;;1.60;;
73126;SDS011;61316;47.852;11.410;2022-07-29T12:51:33;1.90;;;1.70;;
73126;SDS011;61316;47.852;11.410;2022-07-29T12:54:32;2.53;;;1.77;;
73126;SDS011;61316;47.852;11.410;2022-07-29T12:56:57;2.88;;;1.75;;
73126;SDS011;61316;47.852;11.410;2022-07-29T12:59:23;2.15;;;1.63;;
73126;SDS011;61316;47.852;11.410;2022-07-29T13:01:49;3.10;;;1.80;;
73126;SDS011;61316;47.852;11.410;2022-07-29T13:04:28;3.33;;;1.73;;
73126;SDS011;61316;47.852;11.410;2022-07-29T13:07:04;2.72;;;1.92;;
73126;SDS011;61316;47.852;11.410;2022-07-29T13:09:38;3.30;;;1.73;;
73126;SDS011;61316;47.852;11.410;2022-07-29T13:12:10;4.07;;;1.90;;
73126;SDS011;61316;47.852;11.410;2022-07-29T13:14:39;4.70;;;2.20;;
73126;SDS011;61316;47.852;11.410;2022-07-29T13:17:09;3.70;;;2.03;;
73126;SDS011;61316;47.852;11.410;2022-07-29T13:22:03;3.38;;;1.80;;
73126;SDS011;61316;47.852;11.410;2022-07-29T13:24:28;2.20;;;1.70;;
73126;SDS011;61316;47.852;11.410;2022-07-29T13:26:53;3.03;;;2.00;;
73126;SDS011;61316;47.852;11.410;2022-07-29T13:29:18;4.40;;;2.10;;
73126;SDS011;61316;47.852;11.410;2022-07-29T13:31:44;3.90;;;1.80;;
73126;SDS011;61316;47.852;11.410;2022-07-29T13:34:09;2.73;;;1.80;;
73126;SDS011;61316;47.852;11.410;2022-07-29T13:36:34;2.07;;;1.67;;
73126;SDS011;61316;47.852;11.410;2022-07-29T13:38:59;2.40;;;1.60;;
73126;SDS011;61316;47.852;11.410;2022-07-29T13:41:26;3.30;;;1.67;;
73126;SDS011;61316;47.852;11.410;2022-07-29T13:43:51;3.27;;;1.80;;
73126;SDS011;61316;47.852;11.410;2022-07-29T13:46:16;2.10;;;1.60;;
73126;SDS011;61316;47.852;11.410;2022-07-29T13:48:41;2.77;;;1.83;;
73126;SDS011;61316;47.852;11.410;2022-07-29T13:51:06;2.50;;;1.93;;
73126;SDS011;61316;47.852;11.410;2022-07-29T13:53:31;4.10;;;1.87;;
73126;SDS011;61316;47.852;11.410;2022-07-29T13:55:57;3.47;;;1.70;;
73126;SDS011;61316;47.852;11.410;2022-07-29T13:58:23;2.40;;;1.80;;
73126;SDS011;61316;47.852;11.410;2022-07-29T14:00:48;2.00;;;1.60;;
73126;SDS011;61316;47.852;11.410;2022-07-29T14:03:13;2.30;;;1.60;;
73126;SDS011;61316;47.852;11.410;2022-07-29T14:05:39;2.73;;;1.90;;
73126;SDS011;61316;47.852;11.410;2022-07-29T14:08:04;3.07;;;1.60;;
73126;SDS011;61316;47.852;11.410;2022-07-29T14:10:29;3.13;;;1.80;;
73126;SDS011;61316;47.852;11.410;2022-07-29T14:12:54;3.13;;;1.70;;
73126;SDS011;61316;47.852;11.410;2022-07-29T14:15:19;4.23;;;1.70;;
73126;SDS011;61316;47.852;11.410;2022-07-29T14:17:45;3.40;;;1.70;;
73126;SDS011;61316;47.852;11.410;2022-07-29T14:20:10;2.50;;;1.67;;
73126;SDS011;61316;47.852;11.410;2022-07-29T14:22:35;3.07;;;1.60;;
73126;SDS011;61316;47.852;11.410;2022-07-29T14:25:00;3.20;;;1.60;;
73126;SDS011;61316;47.852;11.410;2022-07-29T14:27:26;2.57;;;2.00;;
73126;SDS011;61316;47.852;11.410;2022-07-29T14:29:51;3.20;;;1.70;;
73126;SDS011;61316;47.852;11.410;2022-07-29T14:32:16;2.93;;;1.73;;
73126;SDS011;61316;47.852;11.410;2022-07-29T14:34:41;1.97;;;1.70;;
73126;SDS011;61316;47.852;11.410;2022-07-29T14:37:07;2.03;;;1.60;;
73126;SDS011;61316;47.852;11.410;2022-07-29T14:39:33;3.08;;;1.80;;
73126;SDS011;61316;47.852;11.410;2022-07-29T14:41:59;2.15;;;1.77;;
73126;SDS011;61316;47.852;11.410;2022-07-29T14:44:24;3.17;;;1.70;;
73126;SDS011;61316;47.852;11.410;2022-07-29T14:46:53;2.35;;;1.90;;
73126;SDS011;61316;47.852;11.410;2022-07-29T14:49:19;3.47;;;1.93;;
73126;SDS011;61316;47.852;11.410;2022-07-29T14:51:44;1.63;;;1.53;;
73126;SDS011;61316;47.852;11.410;2022-07-29T14:54:09;2.90;;;1.70;;
73126;SDS011;61316;47.852;11.410;2022-07-29T14:56:35;2.23;;;1.90;;
73126;SDS011;61316;47.852;11.410;2022-07-29T14:59:00;2.13;;;1.70;;
73126;SDS011;61316;47.852;11.410;2022-07-29T15:01:25;1.97;;;1.87;;
73126;SDS011;61316;47.852;11.410;2022-07-29T15:03:51;2.97;;;1.80;;
73126;SDS011;61316;47.852;11.410;2022-07-29T15:06:16;2.58;;;1.48;;
73126;SDS011;61316;47.852;11.410;2022-07-29T15:08:42;1.90;;;1.70;;